Time;durP1;ratioP1;P1;durP2;ratioP2;P2;SDS_P1;SDS_P2;PMS_P1;PMS_P2;Temp;Humidity;BMP_temperature;BMP_pressure;BME280_temperature;BME280_humidity;BME280_pressure;Samples;Min_cycle;Max_cycle;Signal;HPM_P1;HPM_P2
2022/08/08 00:02:20;;;;;;;3.65;2.60;;;;;;;16.82;54.87;101160.22;5037575;28;20393;-69
2022/08/08 00:05:06;;;;;;;7.25;2.65;;;;;;;16.76;56.77;101167.91;5021639;28;20089;-69
2022/08/08 00:07:36;;;;;;;7.38;2.80;;;;;;;16.76;56.51;101176.31;5022505;28;20037;-69
2022/08/08 00:10:13;;;;;;;6.40;2.60;;;;;;;16.65;57.30;101170.13;5042227;28;20036;-69
2022/08/08 00:13:18;;;;;;;5.15;2.70;;;;;;;16.70;56.74;101172.00;5021834;28;20042;-69
2022/08/08 00:15:46;;;;;;;5.13;2.58;;;;;;;16.64;56.46;101162.88;5012281;28;20042;-69
2022/08/08 00:18:37;;;;;;;7.15;2.75;;;;;;;16.63;56.99;101166.84;5001964;28;20045;-69
2022/08/08 00:21:02;;;;;;;5.43;2.53;;;;;;;16.65;55.69;101153.31;5055131;28;20401;-69
2022/08/08 00:23:37;;;;;;;5.60;2.60;;;;;;;16.68;53.53;101151.84;5024773;28;20028;-69
2022/08/08 00:26:03;;;;;;;4.18;2.88;;;;;;;16.63;54.20;101158.44;5045758;28;20025;-69
2022/08/08 00:28:32;;;;;;;4.82;2.45;;;;;;;16.58;56.60;101157.72;5024536;28;20041;-69
2022/08/08 00:30:58;;;;;;;5.50;2.50;;;;;;;16.66;54.66;101163.41;5004843;28;20022;-69
2022/08/08 00:33:25;;;;;;;5.22;2.58;;;;;;;16.63;56.24;101163.19;5021133;28;20436;-69
2022/08/08 00:36:14;;;;;;;7.25;2.42;;;;;;;16.69;53.39;101168.38;5024620;28;20031;-69
2022/08/08 00:38:55;;;;;;;6.88;2.92;;;;;;;16.60;56.36;101161.03;5040931;28;20113;-69
2022/08/08 00:41:33;;;;;;;6.03;2.55;;;;;;;16.63;55.22;101164.03;5024096;28;20056;-69
2022/08/08 00:44:24;;;;;;;2.90;2.20;;;;;;;16.62;53.99;101158.72;5041078;28;20032;-69
2022/08/08 00:47:08;;;;;;;6.57;2.50;;;;;;;16.67;52.74;101156.63;5008033;28;20025;-69
2022/08/08 00:49:58;;;;;;;5.80;2.53;;;;;;;16.67;53.10;101145.41;5040750;28;20486;-69
2022/08/08 00:52:45;;;;;;;4.75;2.50;;;;;;;16.60;53.96;101150.63;5051046;28;20393;-69
2022/08/08 00:55:34;;;;;;;4.10;2.47;;;;;;;16.60;52.85;101150.63;5021057;28;20057;-69
2022/08/08 00:58:09;;;;;;;10.00;2.95;;;;;;;16.54;56.26;101154.72;5052492;28;20111;-69
2022/08/08 01:00:58;;;;;;;4.65;2.42;;;;;;;16.60;52.64;101147.81;5030304;28;20384;-69
2022/08/08 01:04:01;;;;;;;3.80;2.40;;;;;;;16.61;54.90;101145.88;5043145;28;20075;-69
2022/08/08 01:06:42;;;;;;;3.95;2.20;;;;;;;16.64;52.11;101146.06;5037494;28;20033;-69
2022/08/08 01:09:30;;;;;;;7.60;3.05;;;;;;;16.61;52.12;101145.88;5035734;28;20079;-69
2022/08/08 01:12:15;;;;;;;3.58;2.20;;;;;;;16.59;51.80;101143.38;5019856;28;20485;-69
2022/08/08 01:15:14;;;;;;;5.63;2.20;;;;;;;16.62;51.40;101141.91;5038679;28;20025;-69
2022/08/08 01:17:58;;;;;;;4.20;2.38;;;;;;;16.61;51.13;101135.47;5036550;28;20033;-69
2022/08/08 01:20:41;;;;;;;6.28;2.45;;;;;;;16.52;51.88;101143.84;5042301;28;20535;-69
2022/08/08 01:23:24;;;;;;;3.42;2.20;;;;;;;16.48;53.06;101141.97;5038560;28;20055;-69
2022/08/08 01:26:26;;;;;;;4.40;2.55;;;;;;;16.43;52.46;101139.28;5008591;28;20428;-69
2022/08/08 01:29:01;;;;;;;4.55;2.60;;;;;;;16.41;52.99;101135.97;5011311;28;20049;-69
2022/08/08 01:31:29;;;;;;;3.10;2.47;;;;;;;16.39;52.50;101127.91;5038437;28;20044;-69
2022/08/08 01:34:09;;;;;;;4.00;2.38;;;;;;;16.38;53.05;101125.41;5057743;28;20039;-69
2022/08/08 01:36:50;;;;;;;4.35;2.42;;;;;;;16.34;52.61;101130.81;5041345;28;20072;-68
2022/08/08 01:39:32;;;;;;;7.40;3.25;;;;;;;16.22;54.91;101127.78;5030033;28;20061;-69
2022/08/08 01:42:12;;;;;;;5.93;2.47;;;;;;;16.20;53.83;101132.84;5036494;28;20036;-69
2022/08/08 01:44:41;;;;;;;5.28;2.35;;;;;;;16.17;55.17;101128.72;5057648;28;20476;-69
2022/08/08 01:47:22;;;;;;;4.85;2.50;;;;;;;16.15;54.93;101127.38;5030164;28;20520;-69
2022/08/08 01:50:02;;;;;;;3.35;2.15;;;;;;;16.12;55.49;101123.22;5022961;28;20117;-69
2022/08/08 01:52:31;;;;;;;3.78;2.63;;;;;;;16.17;55.97;101128.72;5002913;28;20021;-68
2022/08/08 01:55:06;;;;;;;6.55;2.35;;;;;;;16.13;54.35;101126.84;5056904;28;20389;-68
2022/08/08 01:57:41;;;;;;;4.25;2.58;;;;;;;16.09;55.70;101124.69;5003584;28;20549;-68
2022/08/08 02:00:20;;;;;;;6.88;3.15;;;;;;;16.02;56.20;101129.09;5023934;28;20037;-68
2022/08/08 02:02:51;;;;;;;5.50;2.70;;;;;;;16.04;55.53;101127.59;5023481;28;20055;-68
2022/08/08 02:05:20;;;;;;;2.63;2.13;;;;;;;16.03;55.48;101134.34;5035508;28;20119;-68
2022/08/08 02:08:04;;;;;;;5.68;2.50;;;;;;;16.06;55.21;101141.31;5022598;28;20044;-68
2022/08/08 02:10:59;;;;;;;4.30;2.25;;;;;;;16.01;55.66;101135.81;5057108;28;20043;-68
2022/08/08 02:13:33;;;;;;;5.70;2.58;;;;;;;15.97;55.54;101132.00;5051606;28;20040;-69
2022/08/08 02:16:28;;;;;;;4.75;2.63;;;;;;;15.93;58.29;101136.56;5038935;28;20017;-69
2022/08/08 02:19:00;;;;;;;3.67;2.60;;;;;;;15.90;55.94;101131.59;5028977;28;20075;-69
2022/08/08 02:24:57;;;;;;;4.18;2.65;;;;;;;15.95;55.48;101139.88;4997699;28;20057;-69
2022/08/08 02:27:28;;;;;;;4.22;2.35;;;;;;;15.93;55.42;101131.78;5038722;28;20498;-69
2022/08/08 02:30:09;;;;;;;6.57;2.17;;;;;;;15.95;55.97;101135.09;5023008;28;20021;-69
2022/08/08 02:32:56;;;;;;;4.13;2.30;;;;;;;15.98;54.41;101142.06;5006031;28;20472;-69
2022/08/08 02:35:41;;;;;;;3.88;2.50;;;;;;;15.93;54.70;101137.38;5056461;28;20029;-68
2022/08/08 02:38:35;;;;;;;4.60;2.25;;;;;;;15.94;54.67;101132.63;5038320;28;20396;-68
2022/08/08 02:41:22;;;;;;;5.97;2.53;;;;;;;15.91;55.17;101133.22;5032287;28;20045;-69
2022/08/08 02:44:05;;;;;;;3.92;2.58;;;;;;;15.81;58.00;101128.72;5045091;28;20119;-69
2022/08/08 02:46:54;;;;;;;3.47;2.35;;;;;;;15.76;57.02;101132.44;5050105;28;20083;-69
2022/08/08 02:49:23;;;;;;;5.63;3.42;;;;;;;15.71;59.38;101142.94;5021257;28;20162;-69
2022/08/08 02:52:13;;;;;;;5.53;2.58;;;;;;;15.64;60.24;101132.13;5016304;28;20486;-69
2022/08/08 02:54:57;;;;;;;4.05;2.42;;;;;;;15.64;57.30;101135.75;5051845;28;20029;-69
2022/08/08 02:57:29;;;;;;;2.85;2.35;;;;;;;15.60;57.90;101136.69;5028119;28;20032;-69
2022/08/08 03:00:26;;;;;;;3.50;2.25;;;;;;;15.54;61.78;101143.53;5015883;28;20179;-69
2022/08/08 03:03:16;;;;;;;6.65;3.17;;;;;;;15.51;63.00;101141.38;5038094;28;20370;-69
2022/08/08 03:05:44;;;;;;;4.28;2.50;;;;;;;15.52;59.26;101140.25;5056114;28;20530;-69
2022/08/08 03:08:52;;;;;;;5.70;2.80;;;;;;;15.61;58.01;101136.38;5038508;28;20196;-69
2022/08/08 03:11:52;;;;;;;4.28;2.63;;;;;;;15.53;58.07;101139.91;5021710;28;20499;-69
2022/08/08 03:14:50;;;;;;;3.97;2.17;;;;;;;15.57;58.05;101142.91;5055877;28;20389;-69
2022/08/08 03:17:15;;;;;;;4.95;2.47;;;;;;;15.58;56.94;101145.41;5046865;28;20033;-69
2022/08/08 03:20:05;;;;;;;4.13;2.72;;;;;;;15.57;60.44;101149.38;5037839;28;20064;-69
2022/08/08 03:22:32;;;;;;;4.75;2.42;;;;;;;15.59;57.69;101149.03;5050742;28;20036;-69
2022/08/08 03:25:02;;;;;;;4.47;2.33;;;;;;;15.61;56.59;101144.78;5018306;28;20074;-69
2022/08/08 03:27:36;;;;;;;4.13;2.42;;;;;;;15.60;58.48;101148.75;5004787;28;20069;-68
2022/08/08 03:30:09;;;;;;;4.10;2.30;;;;;;;15.59;56.58;101149.03;5006154;28;20064;-69
2022/08/08 03:35:25;;;;;;;4.20;2.20;;;;;;;15.52;56.51;101154.25;5030380;28;20021;-68
2022/08/08 03:37:51;;;;;;;4.97;2.35;;;;;;;15.51;56.79;101147.78;5018988;28;20025;-69
2022/08/08 03:40:19;;;;;;;4.07;2.40;;;;;;;15.56;56.04;101142.09;5008965;28;20043;-68
2022/08/08 03:42:44;;;;;;;3.80;2.35;;;;;;;15.54;58.07;101152.75;5009485;28;20032;-69
2022/08/08 03:45:18;;;;;;;5.35;2.40;;;;;;;15.46;57.02;101147.06;5009165;28;20025;-68
2022/08/08 03:47:53;;;;;;;3.35;2.22;;;;;;;15.43;56.91;101142.91;5025830;28;20032;-68
2022/08/08 03:50:18;;;;;;;4.53;2.40;;;;;;;15.39;56.13;101139.91;5026598;28;20037;-69
2022/08/08 03:52:44;;;;;;;6.00;2.42;;;;;;;15.36;57.46;101142.53;5059583;28;20037;-69
2022/08/08 03:55:10;;;;;;;3.95;2.40;;;;;;;15.32;57.43;101141.47;5006095;28;20033;-69
2022/08/08 03:57:36;;;;;;;5.75;2.60;;;;;;;15.30;57.38;101147.38;4992831;28;20029;-69
2022/08/08 04:00:11;;;;;;;6.82;2.70;;;;;;;15.27;56.70;101158.38;5059312;28;20036;-69
2022/08/08 04:02:37;;;;;;;4.10;2.70;;;;;;;15.25;57.47;101150.28;5025021;28;20078;-68
2022/08/08 04:05:06;;;;;;;3.55;2.65;;;;;;;15.24;56.10;101156.19;5041613;28;20029;-68
2022/08/08 04:07:38;;;;;;;4.88;2.40;;;;;;;15.25;56.13;101155.88;5025300;28;20096;-68
2022/08/08 04:10:05;;;;;;;2.93;2.20;;;;;;;15.24;56.12;101158.97;5025041;28;20427;-68
2022/08/08 04:12:30;;;;;;;4.18;2.00;;;;;;;15.25;56.12;101150.28;5025013;28;20270;-68
2022/08/08 04:14:56;;;;;;;4.18;2.47;;;;;;;15.21;55.81;101157.66;5024962;28;20029;-68
2022/08/08 04:17:21;;;;;;;4.00;2.72;;;;;;;15.18;56.44;101164.69;4992071;28;20032;-68
2022/08/08 04:19:47;;;;;;;4.57;2.75;;;;;;;15.15;56.34;101158.88;5004945;28;20037;-68
2022/08/08 04:22:12;;;;;;;3.92;2.63;;;;;;;15.09;58.00;101162.91;5021220;28;20025;-68
2022/08/08 04:24:38;;;;;;;2.50;2.17;;;;;;;15.00;56.44;101168.38;5037898;28;20037;-68
2022/08/08 04:27:03;;;;;;;5.32;2.88;;;;;;;14.93;56.94;101165.16;5037828;28;20692;-68
2022/08/08 04:29:29;;;;;;;4.72;2.63;;;;;;;14.87;57.97;101174.78;5021375;28;20037;-68
2022/08/08 04:31:54;;;;;;;5.07;2.53;;;;;;;14.82;58.75;101170.13;5021253;28;20029;-68
2022/08/08 04:34:20;;;;;;;4.97;3.03;;;;;;;14.78;60.25;101165.44;5017838;28;20049;-68
2022/08/08 04:36:45;;;;;;;3.92;3.00;;;;;;;14.72;60.73;101165.53;5001462;28;20026;-68
2022/08/08 04:39:11;;;;;;;3.25;2.67;;;;;;;14.71;58.70;101169.47;5020990;28;20025;-68
2022/08/08 04:41:36;;;;;;;6.07;3.35;;;;;;;14.67;62.39;101173.16;5037702;28;20557;-68
2022/08/08 04:44:02;;;;;;;4.57;2.72;;;;;;;14.69;60.70;101173.69;5034517;28;20044;-68
2022/08/08 04:46:27;;;;;;;3.85;2.83;;;;;;;14.63;59.64;101184.13;5035934;28;20029;-68
2022/08/08 04:48:52;;;;;;;6.20;3.03;;;;;;;14.66;60.47;101183.53;5037656;28;20087;-68
2022/08/08 04:51:18;;;;;;;5.85;3.13;;;;;;;14.59;61.87;101183.06;5037232;28;20036;-68
2022/08/08 04:53:43;;;;;;;6.18;3.08;;;;;;;14.60;59.27;101181.97;5037341;28;20044;-69
2022/08/08 04:56:09;;;;;;;4.43;3.13;;;;;;;14.62;59.83;101184.44;5020882;28;20493;-68
2022/08/08 04:58:34;;;;;;;5.60;2.65;;;;;;;14.59;59.38;101180.28;5003230;28;20034;-68
2022/08/08 05:01:00;;;;;;;5.85;2.53;;;;;;;14.63;58.94;101188.91;5014747;28;20041;-68
2022/08/08 05:03:25;;;;;;;4.65;2.97;;;;;;;14.61;59.33;101186.41;5037261;28;20048;-68
2022/08/08 05:05:51;;;;;;;7.80;3.22;;;;;;;14.58;61.51;101197.38;5020784;28;20087;-68
2022/08/08 05:08:16;;;;;;;4.05;2.50;;;;;;;14.63;60.11;101197.28;5020779;28;20393;-68
2022/08/08 05:10:42;;;;;;;6.07;3.20;;;;;;;14.56;62.95;101194.88;5038349;28;20036;-68
2022/08/08 05:13:07;;;;;;;5.57;2.90;;;;;;;14.64;60.39;101196.16;5026895;28;20025;-68
2022/08/08 05:15:33;;;;;;;5.32;2.75;;;;;;;14.73;60.38;101195.13;5020676;28;20025;-68
2022/08/08 05:17:58;;;;;;;5.30;2.80;;;;;;;14.77;62.20;101203.75;5005564;28;20044;-68
2022/08/08 05:20:24;;;;;;;4.45;3.40;;;;;;;14.81;61.07;101204.78;5019359;28;20069;-68
2022/08/08 05:22:49;;;;;;;7.28;3.00;;;;;;;14.87;62.86;101211.94;5036644;28;20037;-69
2022/08/08 05:25:16;;;;;;;7.55;3.08;;;;;;;14.94;65.80;101206.81;5022652;28;20022;-69
2022/08/08 05:27:41;;;;;;;5.35;3.25;;;;;;;15.03;65.31;101206.94;5019983;28;20034;-69
2022/08/08 05:30:09;;;;;;;6.75;3.13;;;;;;;15.14;65.00;101204.78;5029849;28;20052;-69
2022/08/08 05:32:38;;;;;;;5.18;3.20;;;;;;;15.26;65.86;101207.91;5036994;28;20532;-69
2022/08/08 05:35:04;;;;;;;4.57;3.10;;;;;;;15.40;66.94;101205.13;5020437;28;20034;-69
2022/08/08 05:37:31;;;;;;;6.60;3.15;;;;;;;15.55;65.68;101204.00;5039876;28;20044;-69
2022/08/08 05:39:56;;;;;;;3.28;2.95;;;;;;;15.71;65.95;101210.13;5013451;28;20033;-69
2022/08/08 05:42:23;;;;;;;5.10;3.10;;;;;;;15.90;63.46;101204.41;5036216;28;20034;-70
2022/08/08 05:44:48;;;;;;;7.60;3.10;;;;;;;16.08;63.16;101209.06;5036580;28;20477;-69
2022/08/08 05:47:14;;;;;;;4.05;3.08;;;;;;;16.24;63.44;101209.53;5001662;28;20049;-69
2022/08/08 05:49:40;;;;;;;5.05;3.28;;;;;;;16.42;62.13;101211.34;5020154;28;20509;-69
2022/08/08 05:52:05;;;;;;;5.85;3.40;;;;;;;16.58;63.02;101211.00;5019677;28;20052;-69
2022/08/08 05:54:31;;;;;;;4.88;3.13;;;;;;;16.75;62.13;101216.75;5036221;28;20489;-70
2022/08/08 05:56:56;;;;;;;6.20;3.03;;;;;;;16.93;60.95;101220.50;5016085;28;20034;-70
2022/08/08 05:59:23;;;;;;;6.47;3.40;;;;;;;17.09;61.82;101218.97;5032046;28;20539;-70
2022/08/08 06:01:53;;;;;;;5.00;3.35;;;;;;;17.26;60.04;101214.63;5002844;28;20029;-69
2022/08/08 06:04:25;;;;;;;6.25;3.05;;;;;;;17.44;59.32;101219.16;5035993;28;20037;-69
2022/08/08 06:06:52;;;;;;;6.13;3.00;;;;;;;17.63;59.31;101216.94;5004160;28;20537;-69
2022/08/08 06:09:17;;;;;;;5.18;3.15;;;;;;;17.80;58.30;101221.81;5034713;28;20041;-69
2022/08/08 06:11:43;;;;;;;5.60;2.65;;;;;;;17.97;58.31;101214.56;5016410;28;20029;-70
2022/08/08 06:14:08;;;;;;;5.00;3.08;;;;;;;18.14;58.70;101220.25;5034728;28;20033;-69
2022/08/08 06:16:37;;;;;;;4.47;2.97;;;;;;;18.33;57.25;101224.72;5009365;28;20385;-70
2022/08/08 06:19:03;;;;;;;4.03;2.65;;;;;;;18.47;56.77;101233.81;5022821;28;20045;-70
2022/08/08 06:21:28;;;;;;;3.53;2.70;;;;;;;18.64;56.66;101221.78;5005862;28;20031;-70
2022/08/08 06:23:54;;;;;;;5.00;2.85;;;;;;;18.77;56.21;101223.59;5022586;28;20414;-69
2022/08/08 06:26:19;;;;;;;6.25;3.28;;;;;;;18.87;55.07;101226.06;5022493;28;20028;-69
2022/08/08 06:28:53;;;;;;;4.78;3.13;;;;;;;19.06;54.50;101230.53;5022217;28;20033;-70
2022/08/08 06:31:20;;;;;;;5.65;3.00;;;;;;;19.20;54.28;101236.78;5026775;28;20040;-70
2022/08/08 06:34:11;;;;;;;5.95;2.83;;;;;;;19.33;54.29;101232.91;5038854;28;20028;-71
2022/08/08 06:36:41;;;;;;;5.47;2.90;;;;;;;19.48;53.22;101231.56;5019063;28;20065;-70
2022/08/08 06:39:10;;;;;;;6.40;3.10;;;;;;;19.65;52.97;101236.28;5006495;28;20082;-71
2022/08/08 06:42:00;;;;;;;3.58;2.80;;;;;;;19.88;52.47;101242.50;5022603;28;20029;-70
2022/08/08 06:44:26;;;;;;;5.25;2.97;;;;;;;19.98;52.20;101246.94;5032201;28;20037;-71
2022/08/08 06:46:52;;;;;;;5.18;2.78;;;;;;;20.13;52.02;101242.72;5005406;28;20036;-71
2022/08/08 06:49:18;;;;;;;3.75;2.65;;;;;;;20.24;52.26;101246.78;5019129;28;20041;-71
2022/08/08 06:51:43;;;;;;;5.38;2.80;;;;;;;20.37;51.09;101247.72;5015168;28;20043;-71
2022/08/08 06:54:09;;;;;;;7.15;3.28;;;;;;;20.51;50.58;101249.09;5022017;28;20481;-71
2022/08/08 06:56:35;;;;;;;6.82;2.42;;;;;;;20.67;50.24;101252.16;5021853;28;20057;-71
2022/08/08 06:59:00;;;;;;;5.05;2.80;;;;;;;20.82;50.06;101252.69;5021982;28;20033;-71
2022/08/08 07:01:26;;;;;;;5.72;2.40;;;;;;;20.91;49.76;101247.78;5021807;28;20542;-71
2022/08/08 07:03:59;;;;;;;4.25;2.28;;;;;;;21.05;49.10;101247.47;5022016;28;20072;-71
2022/08/08 07:06:24;;;;;;;;;;;;;;;21.14;48.67;101249.03;5038412;28;20025;-71
2022/08/08 07:08:57;;;;;;;4.80;2.40;;;;;;;21.27;48.63;101251.91;5037797;28;19913;-71
2022/08/08 07:11:27;;;;;;;5.68;2.03;;;;;;;21.41;48.24;101244.78;5038166;28;20265;-71
2022/08/08 07:13:53;;;;;;;5.78;2.72;;;;;;;21.54;47.25;101256.94;5021957;28;20060;-71
2022/08/08 07:16:26;;;;;;;4.07;2.35;;;;;;;21.65;47.12;101251.66;5021376;28;20499;-71
2022/08/08 07:19:11;;;;;;;5.10;2.17;;;;;;;21.81;46.37;101266.75;5014966;28;20029;-71
2022/08/08 07:21:45;;;;;;;4.65;2.20;;;;;;;21.93;46.12;101250.97;5005370;28;20108;-71
2022/08/08 07:24:31;;;;;;;4.82;2.20;;;;;;;22.04;45.28;101257.81;5023590;28;20067;-71
2022/08/08 07:26:58;;;;;;;5.53;2.25;;;;;;;22.14;44.99;101253.66;5044680;28;20119;-71
2022/08/08 07:29:23;;;;;;;9.40;2.20;;;;;;;22.17;44.87;101252.94;5006721;28;20032;-71
2022/08/08 07:31:49;;;;;;;5.43;2.10;;;;;;;22.24;44.62;101261.72;5021198;28;20028;-71
2022/08/08 07:34:15;;;;;;;5.07;2.10;;;;;;;22.41;44.60;101254.97;5018189;28;20029;-71
2022/08/08 07:36:40;;;;;;;5.15;2.10;;;;;;;22.49;44.20;101257.66;4996252;28;20029;-71
2022/08/08 07:39:06;;;;;;;4.43;2.10;;;;;;;22.56;43.76;101250.56;5003053;28;20432;-72
2022/08/08 07:41:31;;;;;;;7.45;2.10;;;;;;;22.63;42.97;101262.09;5001650;28;20069;-72
2022/08/08 07:43:57;;;;;;;5.20;1.83;;;;;;;22.61;42.04;101253.13;4998456;28;20034;-72
2022/08/08 07:46:23;;;;;;;3.15;1.60;;;;;;;22.71;42.07;101256.28;5007668;28;20025;-72
2022/08/08 07:48:48;;;;;;;2.78;1.50;;;;;;;22.65;41.73;101257.75;5005249;28;20504;-71
2022/08/08 07:51:14;;;;;;;3.88;1.52;;;;;;;22.71;41.26;101255.47;5017600;28;20037;-71
2022/08/08 07:53:44;;;;;;;3.58;1.83;;;;;;;22.85;41.33;101258.72;5005007;28;20033;-71
2022/08/08 07:56:10;;;;;;;6.35;1.90;;;;;;;22.82;40.25;101262.28;5021410;28;20090;-71
2022/08/08 07:58:42;;;;;;;2.00;1.30;;;;;;;22.91;40.40;101256.47;5003948;28;20081;-71
2022/08/08 08:01:19;;;;;;;2.95;1.55;;;;;;;23.03;40.88;101261.28;5016173;28;20051;-71
2022/08/08 08:03:57;;;;;;;2.55;1.55;;;;;;;23.04;39.74;101262.91;5004448;28;20033;-70
2022/08/08 08:06:22;;;;;;;4.30;1.35;;;;;;;23.08;39.98;101264.66;5002446;28;20017;-71
2022/08/08 08:09:17;;;;;;;4.57;1.55;;;;;;;23.18;39.02;101274.69;5005775;28;20032;-70
2022/08/08 08:11:46;;;;;;;1.80;1.40;;;;;;;23.29;38.70;101274.94;5003353;28;20026;-71
2022/08/08 08:14:11;;;;;;;3.53;1.33;;;;;;;23.36;37.67;101273.16;5034535;28;20040;-71
2022/08/08 08:16:40;;;;;;;3.00;1.20;;;;;;;23.50;37.42;101277.56;5003116;28;20532;-71
2022/08/08 08:19:09;;;;;;;3.15;1.40;;;;;;;23.68;37.41;101270.38;5004353;28;20476;-71
2022/08/08 08:21:41;;;;;;;3.47;1.20;;;;;;;23.79;37.01;101274.34;5016222;28;20485;-71
2022/08/08 08:24:07;;;;;;;3.53;1.35;;;;;;;23.90;36.39;101279.44;5008199;28;20025;-71
2022/08/08 08:26:32;;;;;;;1.85;1.10;;;;;;;24.02;36.26;101273.69;5023411;28;20029;-71
2022/08/08 08:28:58;;;;;;;2.13;1.20;;;;;;;24.14;35.58;101269.91;4990242;28;20029;-71
2022/08/08 08:31:24;;;;;;;2.72;1.10;;;;;;;24.21;35.19;101268.06;5030848;28;20025;-71
2022/08/08 08:33:49;;;;;;;3.10;1.10;;;;;;;24.24;35.45;101269.34;5034335;28;20074;-72
2022/08/08 08:36:15;;;;;;;2.45;1.20;;;;;;;24.37;35.11;101275.72;5002639;28;20539;-71
2022/08/08 08:38:41;;;;;;;2.42;0.90;;;;;;;24.52;34.56;101267.19;5006828;28;20037;-71
2022/08/08 08:41:07;;;;;;;2.33;1.00;;;;;;;24.61;33.47;101274.69;4991794;28;20112;-71
2022/08/08 08:43:36;;;;;;;2.53;1.02;;;;;;;24.69;33.16;101270.81;5006514;28;20108;-71
2022/08/08 08:46:01;;;;;;;1.75;0.90;;;;;;;24.72;33.04;101270.88;4999207;28;20027;-71
2022/08/08 08:48:27;;;;;;;1.65;0.80;;;;;;;24.77;32.25;101274.59;5004053;28;20025;-70
2022/08/08 08:50:53;;;;;;;2.05;0.88;;;;;;;24.84;32.50;101271.94;5024426;28;20029;-71
2022/08/08 08:53:19;;;;;;;1.65;0.80;;;;;;;24.87;32.28;101263.47;5005859;28;20025;-70
2022/08/08 08:55:44;;;;;;;2.13;0.90;;;;;;;24.81;31.87;101278.34;5028614;28;20029;-70
2022/08/08 08:58:30;;;;;;;3.65;0.82;;;;;;;24.88;31.42;101270.81;5017537;28;20038;-70
2022/08/08 09:00:56;;;;;;;2.75;0.93;;;;;;;24.97;31.72;101270.59;5016608;28;20025;-70
2022/08/08 09:03:22;;;;;;;1.85;0.77;;;;;;;25.00;31.53;101269.84;5004358;28;20036;-71
2022/08/08 09:05:48;;;;;;;2.85;0.90;;;;;;;25.08;31.90;101265.94;5012031;28;20017;-70
2022/08/08 09:08:13;;;;;;;2.00;1.00;;;;;;;25.12;32.02;101261.13;5004627;28;20044;-71
2022/08/08 09:10:39;;;;;;;1.85;1.00;;;;;;;25.18;31.44;101267.38;5007787;28;20473;-71
2022/08/08 09:13:08;;;;;;;1.80;0.90;;;;;;;25.31;31.76;101259.50;5002736;28;20038;-72
2022/08/08 09:15:33;;;;;;;1.17;0.70;;;;;;;25.40;31.11;101260.06;4993157;28;20037;-72
2022/08/08 09:17:59;;;;;;;1.85;0.82;;;;;;;25.52;30.74;101262.75;5012481;28;20091;-72
2022/08/08 09:20:25;;;;;;;3.08;0.73;;;;;;;25.61;30.95;101256.81;5018640;28;20045;-71
2022/08/08 09:22:52;;;;;;;2.90;1.00;;;;;;;25.63;30.05;101252.41;5021447;28;20059;-71
2022/08/08 09:25:18;;;;;;;2.65;1.00;;;;;;;25.62;30.29;101250.72;5023913;28;20100;-71
2022/08/08 09:27:44;;;;;;;1.63;0.85;;;;;;;25.65;30.15;101240.63;5023541;28;20060;-72
2022/08/08 09:30:11;;;;;;;2.00;1.00;;;;;;;25.59;30.25;101242.97;5035601;28;20033;-72
2022/08/08 09:32:37;;;;;;;1.55;1.05;;;;;;;25.61;30.25;101246.25;5005678;28;20037;-71
2022/08/08 09:35:07;;;;;;;1.83;0.70;;;;;;;25.67;30.62;101245.94;5023562;28;20037;-72
2022/08/08 09:37:40;;;;;;;1.25;0.82;;;;;;;25.72;30.65;101242.78;5004061;28;20033;-71
2022/08/08 09:40:07;;;;;;;2.53;0.90;;;;;;;25.81;30.87;101249.03;5014667;28;20393;-72
2022/08/08 09:42:37;;;;;;;2.35;1.10;;;;;;;25.92;30.18;101241.53;5023356;28;20472;-72
2022/08/08 09:45:39;;;;;;;3.83;0.77;;;;;;;25.93;29.87;101250.88;5007347;28;20087;-71
2022/08/08 09:48:04;;;;;;;2.33;0.90;;;;;;;26.04;30.26;101238.47;5003540;28;20110;-72
2022/08/08 09:50:30;;;;;;;1.70;0.80;;;;;;;26.12;29.87;101241.44;5011579;28;20038;-72
2022/08/08 09:52:56;;;;;;;2.67;0.98;;;;;;;26.19;30.07;101238.69;5000585;28;20036;-72
2022/08/08 09:55:21;;;;;;;2.92;1.00;;;;;;;26.35;29.96;101247.88;5023226;28;20125;-72
2022/08/08 09:57:48;;;;;;;1.65;0.77;;;;;;;26.44;29.13;101234.19;5057532;28;20032;-72
2022/08/08 10:00:16;;;;;;;2.30;0.95;;;;;;;26.60;29.35;101224.66;5008330;28;20025;-72
2022/08/08 10:02:43;;;;;;;1.63;0.90;;;;;;;26.64;29.05;101229.19;4984103;28;20116;-72
2022/08/08 10:05:11;;;;;;;4.03;1.05;;;;;;;26.75;29.22;101223.63;5018698;28;20032;-71
2022/08/08 10:07:39;;;;;;;2.85;0.90;;;;;;;26.82;29.23;101218.00;5038409;28;20071;-71
2022/08/08 10:10:05;;;;;;;0.93;0.70;;;;;;;26.95;29.42;101218.56;5003121;28;20033;-72
2022/08/08 10:12:32;;;;;;;1.30;0.82;;;;;;;27.17;29.30;101213.97;5002739;28;20086;-72
2022/08/08 10:15:01;;;;;;;5.10;1.05;;;;;;;27.29;28.75;101225.09;5022784;28;20025;-72
2022/08/08 10:17:27;;;;;;;3.20;1.20;;;;;;;27.35;28.45;101205.59;4990055;28;20033;-72
2022/08/08 10:19:56;;;;;;;3.22;0.93;;;;;;;27.48;28.81;101211.84;5012368;28;20080;-72
2022/08/08 10:22:22;;;;;;;2.72;1.00;;;;;;;27.53;28.38;101200.88;5003165;28;20028;-72
2022/08/08 10:24:47;;;;;;;1.92;0.90;;;;;;;27.63;28.10;101202.97;5001996;28;20030;-72
2022/08/08 10:27:13;;;;;;;2.60;1.10;;;;;;;27.74;28.45;101203.06;4999160;28;20755;-72
2022/08/08 10:30:00;;;;;;;1.55;0.90;;;;;;;27.87;28.45;101191.41;4999734;28;20029;-72
2022/08/08 10:32:42;;;;;;;3.67;1.00;;;;;;;27.95;28.57;101193.09;5000344;28;20108;-72
2022/08/08 10:35:13;;;;;;;3.67;0.80;;;;;;;27.98;28.25;101200.84;5024062;28;20021;-71
2022/08/08 10:37:49;;;;;;;1.98;1.00;;;;;;;28.03;28.21;101197.63;5009138;28;20030;-71
2022/08/08 10:40:15;;;;;;;1.42;0.98;;;;;;;28.02;27.89;101199.66;5017397;28;20037;-71
2022/08/08 10:42:41;;;;;;;5.63;1.30;;;;;;;28.09;28.36;101196.03;5011555;28;20095;-71
2022/08/08 10:45:07;;;;;;;2.95;1.02;;;;;;;28.02;28.51;101205.34;4973172;28;20030;-72
2022/08/08 10:47:32;;;;;;;4.72;1.65;;;;;;;28.12;28.64;101195.25;4973490;28;20392;-71
2022/08/08 10:49:59;;;;;;;3.78;1.00;;;;;;;28.23;28.45;101192.44;4998195;28;20037;-72
2022/08/08 10:52:32;;;;;;;1.48;0.90;;;;;;;28.31;28.99;101201.88;5016355;28;20033;-71
2022/08/08 10:55:00;;;;;;;3.75;2.78;;;;;;;28.16;28.36;101196.06;4990760;28;20040;-71
2022/08/08 10:57:25;;;;;;;5.30;3.50;;;;;;;28.15;28.56;101203.00;4988096;28;20042;-71
2022/08/08 10:59:54;;;;;;;19.20;6.88;;;;;;;28.25;28.94;101196.56;4997934;28;20038;-71
2022/08/08 11:02:28;;;;;;;6.20;3.40;;;;;;;28.25;29.00;101196.56;5031917;28;20028;-71
2022/08/08 11:05:01;;;;;;;3.63;2.17;;;;;;;28.22;28.59;101188.78;5015442;28;20386;-71
2022/08/08 11:07:33;;;;;;;2.78;1.40;;;;;;;28.44;29.11;101194.63;5020048;28;20044;-72
2022/08/08 11:10:04;;;;;;;8.00;3.25;;;;;;;28.44;28.94;101191.75;5035350;28;20568;-72
2022/08/08 11:12:32;;;;;;;16.98;14.50;;;;;;;28.60;29.07;101182.88;5018648;28;20505;-72
2022/08/08 11:14:59;;;;;;;10.13;5.68;;;;;;;28.66;28.83;101195.53;5016626;28;20026;-71
2022/08/08 11:17:28;;;;;;;3.63;1.88;;;;;;;28.68;28.48;101199.63;5017046;28;20045;-72
2022/08/08 11:19:54;;;;;;;1.80;1.40;;;;;;;28.68;28.63;101204.53;4991664;28;20093;-71
2022/08/08 11:22:28;;;;;;;2.75;1.20;;;;;;;28.57;28.30;101201.63;5034902;28;20429;-72
2022/08/08 11:24:58;;;;;;;2.13;1.20;;;;;;;28.66;28.49;101193.50;5002013;28;20024;-72
2022/08/08 11:27:24;;;;;;;4.93;1.17;;;;;;;28.70;28.93;101196.38;5039774;28;20037;-72
2022/08/08 11:29:50;;;;;;;4.25;1.20;;;;;;;28.83;28.66;101183.34;5002580;28;20396;-71
2022/08/08 11:32:15;;;;;;;5.65;1.23;;;;;;;28.75;28.44;101193.13;5010692;28;20026;-71
2022/08/08 11:34:41;;;;;;;3.40;1.13;;;;;;;28.83;28.63;101189.06;4995372;28;20385;-71
2022/08/08 11:37:06;;;;;;;4.07;1.23;;;;;;;28.92;28.29;101180.13;5000072;28;20108;-72
2022/08/08 11:39:32;;;;;;;2.90;1.20;;;;;;;28.95;28.35;101173.59;5017408;28;20034;-71
2022/08/08 11:41:57;;;;;;;1.63;1.08;;;;;;;28.89;28.48;101178.91;4990938;28;20034;-71
2022/08/08 11:44:23;;;;;;;2.90;1.42;;;;;;;28.97;28.57;101171.13;5008506;28;20628;-71
2022/08/08 11:46:51;;;;;;;1.50;1.10;;;;;;;29.03;28.32;101183.88;5031848;28;20022;-71
2022/08/08 11:49:17;;;;;;;2.00;0.85;;;;;;;29.05;27.61;101175.69;5027549;28;20030;-71
2022/08/08 11:51:42;;;;;;;2.42;1.05;;;;;;;29.11;27.91;101168.38;4989470;28;20085;-71